Terminal Aerodrome Forecast
Issued by NWS

Home | Current Version | Previous Version | Text Only | Print | Product List | Glossary On
Versions: 1 2 3 4 5 6 7 8 9 10 11 12
583
FTUS45 KPIH 181720
TAFSUN
TAF
KSUN 181720Z 1818/1924 16005KT P6SM VCSH BKN080
     FM182200 08009KT P6SM VCSH BKN040 OVC060
     FM190700 13004KT 3SM -SN BR OVC008
     FM190900 16005KT 1SM -SN BR OVC002
     FM191400 VRB05KT P6SM VCSH OVC012=

USA.gov is the U.S. government's official web portal to all federal, state and local government web resources and services.